<?xml version="1.0" encoding="utf-8"?>
<gpx xmlns:xsi="http://www.w3.org/2001/XMLSchema-instance" xmlns:xsd="http://www.w3.org/2001/XMLSchema" version="1.1" creator="Shapelink.com" xmlns="http://www.topografix.com/GPX/1/1" xmlns:gpxtpx="http://www.garmin.com/xmlschemas/TrackPointExtension/v1">
  <metadata>
    <name>Övrigt 2.39 km, 2020-06-14</name>
    <desc></desc>
    <author><name>Marian Moron</name></author> 
    <time>2020-06-14T20:03:36Z</time>
  </metadata>
  <trk>
    <name>Övrigt 2.39 km, 2020-06-14</name>
    <trkseg>
      <trkpt lat="51.229856047999" lon="4.458115267333">
        <ele>0</ele>
        <time>2020-06-14T20:03:36Z</time>
      </trkpt>
      <trkpt lat="51.229780946175" lon="4.457401464729">
        <ele>0</ele>
        <time>2020-06-14T20:04:10Z</time>
      </trkpt>
      <trkpt lat="51.229779102157" lon="4.457104074917">
        <ele>0</ele>
        <time>2020-06-14T20:04:25Z</time>
      </trkpt>
      <trkpt lat="51.230006586923" lon="4.456891007019">
        <ele>0</ele>
        <time>2020-06-14T20:04:41Z</time>
      </trkpt>
      <trkpt lat="51.230101972945" lon="4.456666120642">
        <ele>0.6</ele>
        <time>2020-06-14T20:05:03Z</time>
      </trkpt>
      <trkpt lat="51.230325266761" lon="4.456522538695">
        <ele>1</ele>
        <time>2020-06-14T20:05:22Z</time>
      </trkpt>
      <trkpt lat="51.230399781852" lon="4.456414076909">
        <ele>0.8</ele>
        <time>2020-06-14T20:05:35Z</time>
      </trkpt>
      <trkpt lat="51.230489049087" lon="4.456348781908">
        <ele>1</ele>
        <time>2020-06-14T20:05:42Z</time>
      </trkpt>
      <trkpt lat="51.230890458278" lon="4.456269489134">
        <ele>0</ele>
        <time>2020-06-14T20:06:19Z</time>
      </trkpt>
      <trkpt lat="51.230943264248" lon="4.456230261842">
        <ele>0</ele>
        <time>2020-06-14T20:08:01Z</time>
      </trkpt>
      <trkpt lat="51.231139568346" lon="4.455969249476">
        <ele>0</ele>
        <time>2020-06-14T20:08:26Z</time>
      </trkpt>
      <trkpt lat="51.23128507813" lon="4.456010991338">
        <ele>0</ele>
        <time>2020-06-14T20:09:02Z</time>
      </trkpt>
      <trkpt lat="51.231432012837" lon="4.456228501643">
        <ele>0</ele>
        <time>2020-06-14T20:09:27Z</time>
      </trkpt>
      <trkpt lat="51.231505438281" lon="4.456255407542">
        <ele>0</ele>
        <time>2020-06-14T20:10:12Z</time>
      </trkpt>
      <trkpt lat="51.23135883885" lon="4.456131020146">
        <ele>0</ele>
        <time>2020-06-14T20:10:24Z</time>
      </trkpt>
      <trkpt lat="51.231287341243" lon="4.456024905292">
        <ele>0</ele>
        <time>2020-06-14T20:10:31Z</time>
      </trkpt>
      <trkpt lat="51.23100176991" lon="4.456183155564">
        <ele>0</ele>
        <time>2020-06-14T20:10:56Z</time>
      </trkpt>
      <trkpt lat="51.230905461879" lon="4.456240068665">
        <ele>0</ele>
        <time>2020-06-14T20:11:11Z</time>
      </trkpt>
      <trkpt lat="51.231080308313" lon="4.456105036256">
        <ele>0</ele>
        <time>2020-06-14T20:11:31Z</time>
      </trkpt>
      <trkpt lat="51.231203941338" lon="4.455975954996">
        <ele>0</ele>
        <time>2020-06-14T20:11:43Z</time>
      </trkpt>
      <trkpt lat="51.231274516936" lon="4.455803371675">
        <ele>3</ele>
        <time>2020-06-14T20:11:56Z</time>
      </trkpt>
      <trkpt lat="51.231268398149" lon="4.455463988544">
        <ele>7.2</ele>
        <time>2020-06-14T20:12:12Z</time>
      </trkpt>
      <trkpt lat="51.231237133662" lon="4.455219739978">
        <ele>6.4</ele>
        <time>2020-06-14T20:12:39Z</time>
      </trkpt>
      <trkpt lat="51.23119371542" lon="4.454998541637">
        <ele>2.6</ele>
        <time>2020-06-14T20:12:50Z</time>
      </trkpt>
      <trkpt lat="51.231057174269" lon="4.45437132406">
        <ele>0</ele>
        <time>2020-06-14T20:13:22Z</time>
      </trkpt>
      <trkpt lat="51.231143507839" lon="4.45419446597">
        <ele>0</ele>
        <time>2020-06-14T20:13:50Z</time>
      </trkpt>
      <trkpt lat="51.231560591183" lon="4.453893723398">
        <ele>0</ele>
        <time>2020-06-14T20:14:25Z</time>
      </trkpt>
      <trkpt lat="51.231759661308" lon="4.453842761446">
        <ele>0</ele>
        <time>2020-06-14T20:14:40Z</time>
      </trkpt>
      <trkpt lat="51.231651283341" lon="4.45316349227">
        <ele>0</ele>
        <time>2020-06-14T20:15:18Z</time>
      </trkpt>
      <trkpt lat="51.231612558963" lon="4.453013875355">
        <ele>0</ele>
        <time>2020-06-14T20:15:43Z</time>
      </trkpt>
      <trkpt lat="51.231505438281" lon="4.452306191538">
        <ele>0</ele>
        <time>2020-06-14T20:16:16Z</time>
      </trkpt>
      <trkpt lat="51.231442490212" lon="4.451822807365">
        <ele>0</ele>
        <time>2020-06-14T20:16:39Z</time>
      </trkpt>
      <trkpt lat="51.231288766166" lon="4.451128199312">
        <ele>0</ele>
        <time>2020-06-14T20:17:15Z</time>
      </trkpt>
      <trkpt lat="51.231197151999" lon="4.45061036553">
        <ele>0</ele>
        <time>2020-06-14T20:17:42Z</time>
      </trkpt>
      <trkpt lat="51.231126492582" lon="4.450464352832">
        <ele>0</ele>
        <time>2020-06-14T20:18:12Z</time>
      </trkpt>
      <trkpt lat="51.230684179719" lon="4.450687814286">
        <ele>0</ele>
        <time>2020-06-14T20:18:45Z</time>
      </trkpt>
      <trkpt lat="51.230469351622" lon="4.45081488389">
        <ele>3.6</ele>
        <time>2020-06-14T20:19:32Z</time>
      </trkpt>
      <trkpt lat="51.230520313574" lon="4.451017222956">
        <ele>3.2</ele>
        <time>2020-06-14T20:19:45Z</time>
      </trkpt>
      <trkpt lat="51.230558199762" lon="4.451136329755">
        <ele>2</ele>
        <time>2020-06-14T20:19:55Z</time>
      </trkpt>
      <trkpt lat="51.230550656052" lon="4.451373202249">
        <ele>0</ele>
        <time>2020-06-14T20:20:11Z</time>
      </trkpt>
      <trkpt lat="51.230104990429" lon="4.451474036506">
        <ele>0</ele>
        <time>2020-06-14T20:20:46Z</time>
      </trkpt>
      <trkpt lat="51.229849007203" lon="4.451701102177">
        <ele>0</ele>
        <time>2020-06-14T20:21:26Z</time>
      </trkpt>
      <trkpt lat="51.229862418243" lon="4.451753237595">
        <ele>0</ele>
        <time>2020-06-14T20:21:30Z</time>
      </trkpt>
      <trkpt lat="51.230000887231" lon="4.452439044653">
        <ele>0.6</ele>
        <time>2020-06-14T20:22:12Z</time>
      </trkpt>
      <trkpt lat="51.230079593272" lon="4.452901641714">
        <ele>5</ele>
        <time>2020-06-14T20:23:10Z</time>
      </trkpt>
      <trkpt lat="51.230205657048" lon="4.453586442944">
        <ele>0</ele>
        <time>2020-06-14T20:23:56Z</time>
      </trkpt>
      <trkpt lat="51.230301545984" lon="4.454298066254">
        <ele>0</ele>
        <time>2020-06-14T20:24:32Z</time>
      </trkpt>
      <trkpt lat="51.230300707794" lon="4.454495879094">
        <ele>0</ele>
        <time>2020-06-14T20:25:08Z</time>
      </trkpt>
      <trkpt lat="51.230296349206" lon="4.454531837445">
        <ele>0</ele>
        <time>2020-06-14T20:25:10Z</time>
      </trkpt>
      <trkpt lat="51.230261564321" lon="4.455097448057">
        <ele>0</ele>
        <time>2020-06-14T20:25:54Z</time>
      </trkpt>
      <trkpt lat="51.230272041696" lon="4.455106500509">
        <ele>0</ele>
        <time>2020-06-14T20:25:55Z</time>
      </trkpt>
      <trkpt lat="51.230610083723" lon="4.455503215836">
        <ele>0</ele>
        <time>2020-06-14T20:26:40Z</time>
      </trkpt>
      <trkpt lat="51.230667415919" lon="4.455521907473">
        <ele>0</ele>
        <time>2020-06-14T20:26:49Z</time>
      </trkpt>
      <trkpt lat="51.231022473203" lon="4.455973608064">
        <ele>6.2</ele>
        <time>2020-06-14T20:27:29Z</time>
      </trkpt>
      <trkpt lat="51.231164294951" lon="4.455955922255">
        <ele>5</ele>
        <time>2020-06-14T20:27:42Z</time>
      </trkpt>
      <trkpt lat="51.231263452828" lon="4.455853746894">
        <ele>3</ele>
        <time>2020-06-14T20:27:52Z</time>
      </trkpt>
      <trkpt lat="51.231442490212" lon="4.456231183851">
        <ele>0</ele>
        <time>2020-06-14T20:28:20Z</time>
      </trkpt>
      <trkpt lat="51.231318354273" lon="4.456482054118">
        <ele>0</ele>
        <time>2020-06-14T20:28:37Z</time>
      </trkpt>
      <trkpt lat="51.231220369862" lon="4.457164340778">
        <ele>0</ele>
        <time>2020-06-14T20:29:14Z</time>
      </trkpt>
      <trkpt lat="51.231266302674" lon="4.457597182094">
        <ele>0</ele>
        <time>2020-06-14T20:29:34Z</time>
      </trkpt>
      <trkpt lat="51.231343416154" lon="4.457954753948">
        <ele>0</ele>
        <time>2020-06-14T20:29:54Z</time>
      </trkpt>
      <trkpt lat="51.231393875192" lon="4.458143095241">
        <ele>0</ele>
        <time>2020-06-14T20:30:10Z</time>
      </trkpt>
      <trkpt lat="51.231426229326" lon="4.458333615828">
        <ele>1.6</ele>
        <time>2020-06-14T20:31:00Z</time>
      </trkpt>
      <trkpt lat="51.231519687511" lon="4.458363120116">
        <ele>0</ele>
        <time>2020-06-14T20:31:13Z</time>
      </trkpt>
      <trkpt lat="51.231557825156" lon="4.458464122011">
        <ele>1.6</ele>
        <time>2020-06-14T20:31:21Z</time>
      </trkpt>
      <trkpt lat="51.231686403502" lon="4.458989834779">
        <ele>5.6</ele>
        <time>2020-06-14T20:31:55Z</time>
      </trkpt>
      <trkpt lat="51.231714734324" lon="4.459204159962">
        <ele>0.8</ele>
        <time>2020-06-14T20:32:19Z</time>
      </trkpt>
      <trkpt lat="51.231739712386" lon="4.459567682965">
        <ele>0</ele>
        <time>2020-06-14T20:32:49Z</time>
      </trkpt>
      <trkpt lat="51.231443663678" lon="4.45978854603">
        <ele>0</ele>
        <time>2020-06-14T20:33:28Z</time>
      </trkpt>
      <trkpt lat="51.231353390615" lon="4.459785863822">
        <ele>0</ele>
        <time>2020-06-14T20:33:39Z</time>
      </trkpt>
      <trkpt lat="51.231288347071" lon="4.459781505234">
        <ele>0</ele>
        <time>2020-06-14T20:33:47Z</time>
      </trkpt>
      <trkpt lat="51.231206875003" lon="4.459751581851">
        <ele>0</ele>
        <time>2020-06-14T20:33:57Z</time>
      </trkpt>
      <trkpt lat="51.230759700638" lon="4.459705649039">
        <ele>0</ele>
        <time>2020-06-14T20:34:36Z</time>
      </trkpt>
      <trkpt lat="51.230695076189" lon="4.459820229612">
        <ele>0</ele>
        <time>2020-06-14T20:34:51Z</time>
      </trkpt>
      <trkpt lat="51.230523247239" lon="4.459280435252">
        <ele>0</ele>
        <time>2020-06-14T20:35:29Z</time>
      </trkpt>
      <trkpt lat="51.23050556143" lon="4.459052866667">
        <ele>0</ele>
        <time>2020-06-14T20:35:47Z</time>
      </trkpt>
      <trkpt lat="51.230469854536" lon="4.458982793983">
        <ele>0</ele>
        <time>2020-06-14T20:35:52Z</time>
      </trkpt>
      <trkpt lat="51.230117898555" lon="4.458980279413">
        <ele>0</ele>
        <time>2020-06-14T20:36:25Z</time>
      </trkpt>
      <trkpt lat="51.229883540631" lon="4.458428666574">
        <ele>0</ele>
        <time>2020-06-14T20:37:02Z</time>
      </trkpt>
      <trkpt lat="51.229897706042" lon="4.458034298179">
        <ele>0</ele>
        <time>2020-06-14T20:37:29Z</time>
      </trkpt>
      <trkpt lat="51.229851270316" lon="4.457904211091">
        <ele>0</ele>
        <time>2020-06-14T20:37:39Z</time>
      </trkpt>
      <trkpt lat="51.229789663351" lon="4.4578632236">
        <ele>0</ele>
        <time>2020-06-14T20:37:45Z</time>
      </trkpt>
      <trkpt lat="51.229536110876" lon="4.457893063164">
        <ele>0</ele>
        <time>2020-06-14T20:38:11Z</time>
      </trkpt>
      <trkpt lat="51.22935891751" lon="4.457994232697">
        <ele>0</ele>
        <time>2020-06-14T20:38:39Z</time>
      </trkpt>
      <trkpt lat="51.229057420567" lon="4.458155584272">
        <ele>0</ele>
        <time>2020-06-14T20:39:28Z</time>
      </trkpt>
      <trkpt lat="51.229106957596" lon="4.45812976802">
        <ele>0</ele>
        <time>2020-06-14T20:39:33Z</time>
      </trkpt>
      <trkpt lat="51.229551198296" lon="4.457964979866">
        <ele>0</ele>
        <time>2020-06-14T20:40:41Z</time>
      </trkpt>
    </trkseg>
  </trk>
</gpx>